Time;durP1;ratioP1;P1;durP2;ratioP2;P2;SDS_P1;SDS_P2;PMS_P1;PMS_P2;Temp;Humidity;BMP_temperature;BMP_pressure;BME280_temperature;BME280_humidity;BME280_pressure;Samples;Min_cycle;Max_cycle;Signal;HPM_P1;HPM_P2
2020/12/06 00:00:29;;;;;;;46.07;34.70;;;3.40;99.90;;;;;;5046666;28;20233;-68
2020/12/06 00:02:54;;;;;;;44.67;33.17;;;3.40;99.90;;;;;;5044338;28;20657;-68
2020/12/06 00:05:20;;;;;;;39.37;30.83;;;3.40;99.90;;;;;;5042202;28;20202;-68
2020/12/06 00:07:45;;;;;;;39.60;30.70;;;3.40;99.90;;;;;;5038112;28;20283;-68
2020/12/06 00:10:17;;;;;;;43.33;32.70;;;3.40;99.90;;;;;;5045204;28;20191;-69
2020/12/06 00:12:44;;;;;;;48.23;34.17;;;3.30;99.90;;;;;;5042482;28;20196;-68
2020/12/06 00:15:10;;;;;;;46.23;34.13;;;3.30;99.90;;;;;;5043270;28;20852;-68
2020/12/06 00:17:36;;;;;;;44.90;34.23;;;3.30;99.90;;;;;;5038989;28;20185;-68
2020/12/06 00:20:08;;;;;;;48.20;34.93;;;3.30;99.90;;;;;;5042172;28;20188;-68
2020/12/06 00:22:34;;;;;;;43.53;32.90;;;3.30;99.90;;;;;;5042969;28;20213;-68
2020/12/06 00:24:59;;;;;;;44.80;31.83;;;3.30;99.90;;;;;;5041241;28;20199;-68
2020/12/06 00:27:25;;;;;;;39.00;30.40;;;3.30;99.90;;;;;;5043497;28;20273;-68
2020/12/06 00:29:51;;;;;;;42.07;31.27;;;3.30;99.90;;;;;;5040871;28;20667;-69
2020/12/06 00:32:16;;;;;;;41.07;30.70;;;3.30;99.90;;;;;;5032651;28;20276;-68
2020/12/06 00:34:42;;;;;;;43.13;32.80;;;3.30;99.90;;;;;;5040063;28;20218;-68
2020/12/06 00:37:07;;;;;;;40.37;30.67;;;3.30;99.90;;;;;;5038810;28;20183;-68
2020/12/06 00:39:33;;;;;;;46.63;32.80;;;3.20;99.90;;;;;;5042628;28;20202;-68
2020/12/06 00:41:58;;;;;;;44.07;31.80;;;3.20;99.90;;;;;;5042296;28;20223;-69
2020/12/06 00:44:24;;;;;;;43.27;32.00;;;3.30;99.90;;;;;;5019918;28;20195;-68
2020/12/06 00:46:50;;;;;;;46.40;32.33;;;3.40;99.90;;;;;;5043100;28;20195;-68
2020/12/06 00:49:15;;;;;;;39.07;30.43;;;3.40;99.90;;;;;;5035918;28;20251;-68
2020/12/06 00:51:41;;;;;;;45.33;32.57;;;3.40;99.90;;;;;;5040775;28;20198;-68
2020/12/06 00:54:06;;;;;;;44.83;32.30;;;3.40;99.90;;;;;;5035902;28;20220;-68
2020/12/06 00:56:32;;;;;;;44.37;32.03;;;3.40;99.90;;;;;;5043999;28;20225;-68
2020/12/06 00:58:57;;;;;;;47.63;33.67;;;3.40;99.90;;;;;;5042578;28;20228;-68
2020/12/06 01:01:23;;;;;;;49.57;35.07;;;3.40;99.90;;;;;;5048508;28;20216;-68
2020/12/06 01:03:49;;;;;;;46.57;33.27;;;3.40;99.90;;;;;;5037886;28;20205;-69
2020/12/06 01:06:19;;;;;;;43.13;32.37;;;3.40;99.90;;;;;;5044918;28;20268;-67
2020/12/06 01:08:45;;;;;;;44.20;31.70;;;3.40;99.90;;;;;;5045126;28;20218;-68
2020/12/06 01:11:13;;;;;;;48.27;34.10;;;3.40;99.90;;;;;;5039257;28;20190;-68
2020/12/06 01:13:38;;;;;;;51.37;35.83;;;3.40;99.90;;;;;;5038532;28;20240;-68
2020/12/06 01:16:04;;;;;;;56.10;36.60;;;3.40;99.90;;;;;;5038252;28;20691;-68
2020/12/06 01:18:30;;;;;;;44.67;30.20;;;3.40;99.90;;;;;;5042228;28;20211;-67
2020/12/06 01:20:55;;;;;;;34.97;28.57;;;3.40;99.90;;;;;;5045555;28;20662;-67
2020/12/06 01:23:22;;;;;;;39.50;29.63;;;3.40;99.90;;;;;;5043033;28;20239;-68
2020/12/06 01:25:48;;;;;;;40.53;30.40;;;3.40;99.90;;;;;;5043771;28;20184;-68
2020/12/06 01:28:13;;;;;;;42.03;31.83;;;3.30;99.90;;;;;;5042465;28;20283;-70
2020/12/06 01:30:39;;;;;;;43.93;30.50;;;3.30;99.90;;;;;;5045545;28;20658;-67
2020/12/06 01:33:05;;;;;;;43.47;30.60;;;3.30;99.90;;;;;;5047582;28;20311;-68
2020/12/06 01:35:30;;;;;;;45.20;32.20;;;3.30;99.90;;;;;;5039634;28;20196;-68
2020/12/06 01:37:57;;;;;;;44.70;31.77;;;3.40;99.90;;;;;;5046183;28;20207;-70
2020/12/06 01:40:22;;;;;;;40.53;29.93;;;3.40;99.90;;;;;;5046525;28;20564;-68
2020/12/06 01:42:48;;;;;;;42.33;28.97;;;3.40;99.90;;;;;;5026149;28;20181;-68
2020/12/06 01:45:13;;;;;;;36.10;27.60;;;3.40;99.90;;;;;;5039996;28;20271;-67
2020/12/06 01:47:39;;;;;;;38.73;29.03;;;3.50;99.90;;;;;;5038012;28;20180;-67
2020/12/06 01:50:05;;;;;;;36.20;28.53;;;3.40;99.90;;;;;;5038988;28;20181;-67
2020/12/06 01:52:30;;;;;;;40.63;29.53;;;3.40;99.90;;;;;;5046979;28;20606;-68
2020/12/06 01:54:57;;;;;;;40.60;29.60;;;3.40;99.90;;;;;;5038334;28;20212;-68
2020/12/06 01:57:23;;;;;;;42.80;31.20;;;3.40;99.90;;;;;;5049797;28;20180;-68
2020/12/06 01:59:49;;;;;;;47.63;32.80;;;3.40;99.90;;;;;;5036968;28;20237;-68
2020/12/06 02:02:15;;;;;;;41.97;30.93;;;3.30;99.90;;;;;;5045560;28;20221;-68
2020/12/06 02:04:42;;;;;;;42.07;29.53;;;3.30;99.90;;;;;;5044398;28;20179;-68
2020/12/06 02:07:08;;;;;;;41.00;30.20;;;3.40;99.90;;;;;;5043797;28;20271;-68
2020/12/06 02:09:33;;;;;;;43.77;31.07;;;3.40;99.90;;;;;;5028451;28;20336;-68
2020/12/06 02:11:59;;;;;;;43.57;31.53;;;3.40;99.90;;;;;;5041725;28;20185;-68
2020/12/06 02:14:25;;;;;;;43.37;31.00;;;3.40;99.90;;;;;;5041206;28;20333;-68
2020/12/06 02:16:54;;;;;;;42.13;30.97;;;3.40;99.90;;;;;;5042891;28;20190;-68
2020/12/06 02:19:20;;;;;;;41.63;30.33;;;3.40;99.90;;;;;;5042949;28;20292;-68
2020/12/06 02:21:46;;;;;;;40.93;30.80;;;3.50;99.90;;;;;;5044124;28;20650;-69
2020/12/06 02:24:15;;;;;;;41.13;30.40;;;3.50;99.90;;;;;;5042447;28;20182;-68
2020/12/06 02:26:46;;;;;;;43.30;29.33;;;3.50;99.90;;;;;;5046156;28;20260;-70
2020/12/06 02:29:13;;;;;;;42.40;30.30;;;3.40;99.90;;;;;;5039986;28;20202;-68
2020/12/06 02:31:39;;;;;;;47.87;33.13;;;3.50;99.90;;;;;;5022336;28;20199;-68
2020/12/06 02:34:06;;;;;;;40.67;31.27;;;3.50;99.90;;;;;;5049580;28;20626;-67
2020/12/06 02:36:32;;;;;;;35.50;28.20;;;3.50;99.90;;;;;;5042296;28;20183;-67
2020/12/06 02:38:58;;;;;;;41.27;30.13;;;3.50;99.90;;;;;;5046041;28;20291;-68
2020/12/06 02:41:35;;;;;;;40.10;30.50;;;3.50;99.90;;;;;;5031903;28;20200;-68
2020/12/06 02:44:00;;;;;;;42.93;30.73;;;3.50;99.90;;;;;;5041547;28;20247;-67
2020/12/06 02:46:26;;;;;;;38.40;30.13;;;3.50;99.90;;;;;;5042343;28;20651;-68
2020/12/06 02:48:51;;;;;;;43.83;32.13;;;3.50;99.90;;;;;;5040124;28;20211;-68
2020/12/06 02:51:17;;;;;;;40.80;31.17;;;3.50;99.90;;;;;;5042560;28;20846;-69
2020/12/06 02:53:42;;;;;;;43.27;30.03;;;3.50;99.90;;;;;;5043854;28;20221;-69
2020/12/06 02:56:08;;;;;;;39.30;30.13;;;3.40;99.90;;;;;;5041061;28;20188;-69
2020/12/06 02:58:34;;;;;;;39.80;30.67;;;3.40;99.90;;;;;;5041589;28;20199;-69
2020/12/06 03:00:59;;;;;;;40.07;30.17;;;3.40;99.90;;;;;;5043687;28;20196;-70
2020/12/06 03:03:25;;;;;;;36.63;29.40;;;3.50;99.90;;;;;;5044488;28;20291;-68
2020/12/06 03:05:50;;;;;;;36.53;29.47;;;3.50;99.90;;;;;;5048163;28;20195;-68
2020/12/06 03:08:16;;;;;;;38.47;28.83;;;3.40;99.90;;;;;;5041050;28;20234;-67
2020/12/06 03:10:41;;;;;;;36.73;28.67;;;3.40;99.90;;;;;;5048191;28;20248;-69
2020/12/06 03:13:07;;;;;;;35.17;28.13;;;3.50;99.90;;;;;;5036054;28;20222;-67
2020/12/06 03:15:33;;;;;;;35.50;28.70;;;3.50;99.90;;;;;;5046379;28;20274;-68
2020/12/06 03:17:58;;;;;;;35.73;28.03;;;3.40;99.90;;;;;;5040375;28;20265;-68
2020/12/06 03:20:24;;;;;;;38.30;29.17;;;3.40;99.90;;;;;;5044109;28;20267;-68
2020/12/06 03:22:49;;;;;;;36.97;29.43;;;3.40;99.90;;;;;;5035697;28;20225;-68
2020/12/06 03:25:15;;;;;;;41.23;30.87;;;3.40;99.90;;;;;;5041524;28;20269;-70
2020/12/06 03:27:40;;;;;;;43.40;32.27;;;3.40;99.90;;;;;;5040852;28;20232;-68
2020/12/06 03:30:06;;;;;;;43.17;32.73;;;3.40;99.90;;;;;;5045168;28;20190;-68
2020/12/06 03:32:32;;;;;;;39.77;29.90;;;3.50;99.90;;;;;;5042449;28;20182;-68
2020/12/06 03:34:57;;;;;;;38.80;29.63;;;3.50;99.90;;;;;;5041519;28;20934;-68
2020/12/06 03:37:23;;;;;;;44.17;31.90;;;3.50;99.90;;;;;;5044818;28;20238;-68
2020/12/06 03:39:49;;;;;;;43.93;31.77;;;3.50;99.90;;;;;;5042661;28;20222;-69
2020/12/06 03:42:15;;;;;;;40.37;29.83;;;3.50;99.90;;;;;;5038612;28;20193;-68
2020/12/06 03:44:41;;;;;;;43.80;30.43;;;3.50;99.90;;;;;;5040675;28;20664;-68
2020/12/06 03:47:06;;;;;;;44.40;31.63;;;3.50;99.90;;;;;;5041334;28;20180;-68
2020/12/06 03:49:32;;;;;;;43.87;32.40;;;3.60;99.90;;;;;;5037724;28;20258;-68
2020/12/06 03:51:58;;;;;;;50.73;37.13;;;3.60;99.90;;;;;;5046210;28;20191;-67
2020/12/06 03:54:23;;;;;;;51.60;35.53;;;3.60;99.90;;;;;;5037029;28;20213;-68
2020/12/06 03:56:49;;;;;;;51.97;37.57;;;3.60;99.90;;;;;;5045532;28;20182;-68
2020/12/06 03:59:14;;;;;;;54.17;37.93;;;3.60;99.90;;;;;;5043165;28;20236;-68
2020/12/06 04:01:40;;;;;;;52.27;37.80;;;3.50;99.90;;;;;;5059722;28;20470;-68
2020/12/06 04:04:05;;;;;;;51.27;37.43;;;3.50;99.90;;;;;;5057397;28;20183;-68
2020/12/06 04:06:31;;;;;;;49.47;36.43;;;3.50;99.90;;;;;;5058787;28;20175;-69
2020/12/06 04:08:57;;;;;;;55.43;38.07;;;3.40;99.90;;;;;;5051386;28;20215;-68
2020/12/06 04:11:22;;;;;;;50.70;37.77;;;3.40;99.90;;;;;;5045402;28;20196;-68
2020/12/06 04:13:48;;;;;;;50.03;37.67;;;3.50;99.90;;;;;;5038019;28;20222;-68
2020/12/06 04:16:13;;;;;;;53.27;38.10;;;3.40;99.90;;;;;;5040987;28;20243;-68
2020/12/06 04:18:39;;;;;;;52.80;37.83;;;3.40;99.90;;;;;;5040833;28;20208;-68
2020/12/06 04:21:04;;;;;;;52.43;37.43;;;3.40;99.90;;;;;;5043494;28;20183;-69
2020/12/06 04:23:30;;;;;;;57.17;38.90;;;3.40;99.90;;;;;;5038690;28;20188;-68
2020/12/06 04:25:56;;;;;;;52.60;38.33;;;3.40;99.90;;;;;;5045513;28;20191;-68
2020/12/06 04:28:21;;;;;;;53.90;38.73;;;3.40;99.90;;;;;;5037036;28;20225;-68
2020/12/06 04:30:47;;;;;;;55.03;38.60;;;3.40;99.90;;;;;;5042806;28;20680;-68
2020/12/06 04:33:13;;;;;;;52.90;38.00;;;3.40;99.90;;;;;;5040438;28;20204;-68
2020/12/06 04:35:39;;;;;;;47.83;36.17;;;3.40;99.90;;;;;;5048997;28;20243;-68
2020/12/06 04:38:04;;;;;;;53.80;36.97;;;3.40;99.90;;;;;;5045869;28;20247;-71
2020/12/06 04:40:30;;;;;;;51.83;35.33;;;3.40;99.90;;;;;;5040268;28;20227;-70
2020/12/06 04:42:57;;;;;;;51.67;37.00;;;3.40;99.90;;;;;;5043347;28;20179;-71
2020/12/06 04:45:22;;;;;;;54.63;36.43;;;3.30;99.90;;;;;;5047852;28;20188;-71
2020/12/06 04:47:52;;;;;;;54.83;45.17;;;3.30;99.90;;;;;;5037523;28;20418;-71
2020/12/06 04:50:31;;;;;;;54.53;38.27;;;3.30;99.90;;;;;;5048387;28;20174;-71
2020/12/06 04:52:58;;;;;;;55.17;37.07;;;3.30;99.90;;;;;;5045330;28;20189;-71
2020/12/06 04:55:29;;;;;;;48.43;34.70;;;3.20;99.90;;;;;;5046089;28;20235;-71
2020/12/06 04:57:57;;;;;;;49.70;35.23;;;3.30;99.90;;;;;;5048993;28;20543;-70
2020/12/06 05:00:34;;;;;;;47.37;33.60;;;3.30;99.90;;;;;;5046141;28;20195;-70
2020/12/06 05:03:11;;;;;;;48.37;34.37;;;3.30;99.90;;;;;;5044712;28;20238;-70
2020/12/06 05:05:39;;;;;;;51.90;35.53;;;3.30;99.90;;;;;;5041023;28;20191;-70
2020/12/06 05:08:13;;;;;;;52.40;35.90;;;3.20;99.90;;;;;;5046621;28;20298;-70
2020/12/06 05:10:41;;;;;;;57.03;37.87;;;3.20;99.90;;;;;;5050000;28;20204;-70
2020/12/06 05:13:09;;;;;;;56.20;36.87;;;3.20;99.90;;;;;;5044365;28;20390;-69
2020/12/06 05:15:35;;;;;;;54.50;35.40;;;3.30;99.90;;;;;;5038468;28;20187;-69
2020/12/06 05:18:03;;;;;;;56.40;38.77;;;3.30;99.90;;;;;;5045847;28;20213;-69
2020/12/06 05:20:29;;;;;;;53.60;36.97;;;3.20;99.90;;;;;;5026679;28;20186;-69
2020/12/06 05:22:55;;;;;;;56.13;36.00;;;3.30;99.90;;;;;;5042221;28;20269;-69
2020/12/06 05:25:21;;;;;;;49.73;34.90;;;3.30;99.90;;;;;;5043805;28;20173;-69
2020/12/06 05:27:47;;;;;;;48.93;35.67;;;3.30;99.90;;;;;;5039884;28;20190;-69
2020/12/06 05:30:13;;;;;;;53.07;36.57;;;3.30;99.90;;;;;;5031384;28;20281;-69
2020/12/06 05:32:39;;;;;;;51.00;34.20;;;3.30;99.90;;;;;;5048090;28;20639;-69
2020/12/06 05:35:07;;;;;;;53.40;36.10;;;3.30;99.90;;;;;;5044718;28;20245;-69
2020/12/06 05:37:36;;;;;;;56.43;37.50;;;3.30;99.90;;;;;;5038120;28;20202;-69
2020/12/06 05:40:06;;;;;;;56.50;37.80;;;3.30;99.90;;;;;;5042834;28;20214;-71
2020/12/06 05:42:37;;;;;;;57.90;37.17;;;3.30;99.90;;;;;;5047605;28;20663;-69
2020/12/06 05:45:03;;;;;;;56.03;35.37;;;3.40;99.90;;;;;;5029007;28;20275;-69
2020/12/06 05:47:29;;;;;;;58.97;36.33;;;3.40;99.90;;;;;;5027055;28;20188;-70
2020/12/06 05:49:59;;;;;;;57.43;36.27;;;3.40;99.90;;;;;;5050608;28;20205;-69
2020/12/06 05:52:28;;;;;;;59.27;37.60;;;3.40;99.90;;;;;;5043098;28;20176;-69
2020/12/06 05:54:56;;;;;;;54.57;33.03;;;3.40;99.90;;;;;;5043496;28;20204;-69
2020/12/06 05:57:27;;;;;;;60.83;35.23;;;3.50;99.90;;;;;;5046897;28;20185;-69
2020/12/06 06:00:00;;;;;;;59.93;35.27;;;3.50;99.90;;;;;;5042881;28;20252;-69
2020/12/06 06:02:26;;;;;;;65.57;35.30;;;3.50;99.90;;;;;;5046568;28;20177;-70
2020/12/06 06:04:56;;;;;;;67.93;35.93;;;3.50;99.90;;;;;;5045437;28;20187;-69
2020/12/06 06:07:23;;;;;;;65.80;37.77;;;3.50;99.90;;;;;;5041096;28;20189;-69
2020/12/06 06:10:00;;;;;;;78.00;36.73;;;3.40;99.90;;;;;;5047928;28;20295;-70
2020/12/06 06:12:28;;;;;;;87.50;38.37;;;3.50;99.90;;;;;;5051924;28;20188;-70
2020/12/06 06:14:56;;;;;;;77.90;36.70;;;3.40;99.90;;;;;;5046101;28;20270;-70
2020/12/06 06:17:25;;;;;;;88.10;39.93;;;3.40;99.90;;;;;;5045069;28;20926;-70
2020/12/06 06:19:51;;;;;;;96.43;37.93;;;3.40;99.90;;;;;;5039028;28;20207;-70
2020/12/06 06:22:20;;;;;;;113.00;38.90;;;3.40;99.90;;;;;;5040164;28;20190;-70
2020/12/06 06:24:48;;;;;;;83.03;38.43;;;3.30;99.90;;;;;;5046204;28;20219;-70
2020/12/06 06:27:14;;;;;;;84.20;38.47;;;3.40;99.90;;;;;;5044467;28;20180;-70
2020/12/06 06:29:40;;;;;;;192.67;39.27;;;3.40;99.90;;;;;;5043917;28;20215;-70
2020/12/06 06:32:07;;;;;;;66.90;36.53;;;3.30;99.90;;;;;;5024654;28;20186;-71
2020/12/06 06:34:33;;;;;;;92.70;35.60;;;3.30;99.90;;;;;;5048906;28;20261;-70
2020/12/06 06:36:59;;;;;;;70.77;35.83;;;3.30;99.90;;;;;;5030780;28;20187;-70
2020/12/06 06:39:26;;;;;;;68.47;35.60;;;3.30;99.90;;;;;;5046204;28;20203;-70
2020/12/06 06:41:58;;;;;;;75.83;35.90;;;3.30;99.90;;;;;;5046477;28;20212;-70
2020/12/06 06:44:27;;;;;;;66.67;35.30;;;3.40;99.90;;;;;;5049761;28;20244;-71
2020/12/06 06:47:01;;;;;;;71.07;34.27;;;3.30;99.90;;;;;;5048395;28;20205;-70
2020/12/06 06:49:27;;;;;;;68.00;35.10;;;3.30;99.90;;;;;;5047877;28;20600;-70
2020/12/06 06:51:53;;;;;;;70.13;36.00;;;3.40;99.90;;;;;;5045589;28;20202;-70
2020/12/06 06:54:30;;;;;;;75.97;35.73;;;3.40;99.90;;;;;;5026539;28;20306;-70
2020/12/06 06:56:57;;;;;;;66.30;34.20;;;3.40;99.90;;;;;;5047040;28;20605;-70
2020/12/06 06:59:44;;;;;;;68.53;34.60;;;3.40;99.90;;;;;;5043974;28;20248;-70
2020/12/06 07:02:33;;;;;;;75.73;34.17;;;3.50;99.90;;;;;;5039387;28;20610;-70
2020/12/06 07:05:05;;;;;;;85.03;33.63;;;3.40;99.90;;;;;;5044888;28;20193;-70
2020/12/06 07:07:53;;;;;;;78.13;40.73;;;3.40;99.90;;;;;;5038296;28;20189;-69
2020/12/06 07:10:22;;;;;;;88.40;51.77;;;3.40;99.90;;;;;;5039814;28;20184;-68
2020/12/06 07:12:51;;;;;;;85.50;43.60;;;3.30;99.90;;;;;;5041416;28;20188;-71
2020/12/06 07:15:19;;;;;;;86.33;34.67;;;3.30;99.90;;;;;;5044128;28;20181;-71
2020/12/06 07:17:46;;;;;;;152.40;38.70;;;3.30;99.90;;;;;;5045062;28;20183;-68
2020/12/06 07:20:14;;;;;;;85.90;37.53;;;3.30;99.90;;;;;;5043575;28;20178;-69
2020/12/06 07:22:40;;;;;;;83.43;37.73;;;3.20;99.90;;;;;;5039419;28;20187;-68
2020/12/06 07:25:08;;;;;;;91.83;35.73;;;3.20;99.90;;;;;;5035831;28;20198;-71
2020/12/06 07:27:34;;;;;;;97.17;37.33;;;3.20;99.90;;;;;;5042752;28;20190;-71
2020/12/06 07:30:01;;;;;;;116.37;39.37;;;3.30;99.90;;;;;;5038514;28;20225;-71
2020/12/06 07:32:27;;;;;;;100.30;38.03;;;3.20;99.90;;;;;;5043566;28;20678;-72
2020/12/06 07:34:52;;;;;;;87.33;38.03;;;3.20;99.90;;;;;;5042339;28;20208;-70
2020/12/06 07:37:18;;;;;;;91.57;35.10;;;3.20;99.90;;;;;;5046536;28;20329;-71
2020/12/06 07:39:46;;;;;;;105.63;31.77;;;3.30;99.90;;;;;;5038070;28;20214;-70
2020/12/06 07:42:22;;;;;;;96.23;33.07;;;3.30;99.90;;;;;;5037825;28;20183;-70
2020/12/06 07:44:56;;;;;;;72.07;30.63;;;3.30;99.90;;;;;;5035863;28;20191;-68
2020/12/06 07:47:22;;;;;;;131.97;35.43;;;3.30;99.90;;;;;;5039150;28;20261;-71
2020/12/06 07:49:53;;;;;;;120.63;33.17;;;3.30;99.90;;;;;;5039801;28;20203;-70
2020/12/06 07:52:26;;;;;;;133.37;31.97;;;3.20;99.90;;;;;;5038314;28;20196;-71
2020/12/06 07:55:07;;;;;;;103.33;36.87;;;3.20;99.90;;;;;;5037184;28;20220;-70
2020/12/06 07:57:35;;;;;;;94.40;35.67;;;3.30;99.90;;;;;;5042529;28;20186;-70
2020/12/06 08:00:05;;;;;;;79.03;34.20;;;3.30;99.90;;;;;;5040630;28;20210;-70
2020/12/06 08:02:33;;;;;;;71.70;30.87;;;3.30;99.90;;;;;;5043841;28;20210;-69
2020/12/06 08:05:00;;;;;;;70.37;30.87;;;3.40;99.90;;;;;;5049866;28;20184;-68
2020/12/06 08:07:35;;;;;;;62.47;29.70;;;3.40;99.90;;;;;;5048240;28;20197;-69
2020/12/06 08:10:02;;;;;;;59.33;26.60;;;3.50;99.90;;;;;;5031812;28;20206;-68
2020/12/06 08:12:31;;;;;;;67.93;30.27;;;3.50;99.90;;;;;;5024722;28;20198;-69
2020/12/06 08:15:04;;;;;;;57.47;27.23;;;3.50;99.90;;;;;;5029323;28;20619;-69
2020/12/06 08:17:42;;;;;;;55.23;26.43;;;3.60;99.90;;;;;;5044554;28;20616;-69
2020/12/06 08:20:12;;;;;;;55.60;26.83;;;3.50;99.90;;;;;;5023377;28;20226;-68
2020/12/06 08:22:57;;;;;;;58.63;26.53;;;3.50;99.90;;;;;;5027725;28;20183;-69
2020/12/06 08:25:32;;;;;;;58.60;27.67;;;3.50;99.90;;;;;;5025459;28;20198;-71
2020/12/06 08:27:59;;;;;;;65.90;26.70;;;3.50;99.90;;;;;;5038801;28;20240;-71
2020/12/06 08:30:30;;;;;;;71.22;36.00;;;3.50;99.90;;;;;;5041455;28;20418;-70
2020/12/06 08:32:57;;;;;;;63.13;29.73;;;3.60;99.90;;;;;;5045015;28;20207;-68
2020/12/06 08:35:41;;;;;;;50.77;26.00;;;3.60;99.90;;;;;;5043027;28;20174;-69
2020/12/06 08:38:19;;;;;;;53.80;27.57;;;3.60;99.90;;;;;;5044292;28;20214;-69
2020/12/06 08:40:59;;;;;;;44.50;25.10;;;3.60;99.90;;;;;;5045348;28;20199;-67
2020/12/06 08:43:41;;;;;;;34.23;20.90;;;3.70;99.90;;;;;;5036265;28;20184;-70
2020/12/06 08:46:08;;;;;;;39.37;23.10;;;3.70;99.90;;;;;;5036143;28;20196;-69
2020/12/06 08:48:33;;;;;;;46.30;25.50;;;3.70;99.90;;;;;;5045042;28;20217;-68
2020/12/06 08:50:59;;;;;;;51.03;26.37;;;3.70;99.90;;;;;;5046018;28;20189;-68
2020/12/06 08:53:25;;;;;;;52.10;30.53;;;3.70;99.90;;;;;;5032505;28;20233;-68
2020/12/06 08:55:50;;;;;;;49.43;28.87;;;3.80;99.90;;;;;;5045683;28;20221;-68
2020/12/06 08:58:29;;;;;;;51.30;29.57;;;3.90;99.90;;;;;;5043272;28;20219;-69
2020/12/06 09:01:02;;;;;;;49.23;27.57;;;4.00;99.90;;;;;;5043817;28;20198;-69
2020/12/06 09:03:28;;;;;;;46.33;27.07;;;3.90;99.90;;;;;;5042381;28;20203;-70
2020/12/06 09:05:53;;;;;;;43.50;25.17;;;3.90;99.90;;;;;;5043779;28;20206;-68
2020/12/06 09:08:19;;;;;;;42.47;25.60;;;4.00;99.90;;;;;;5038927;28;20786;-69
2020/12/06 09:10:45;;;;;;;40.30;26.20;;;4.10;99.90;;;;;;5039447;28;20192;-68
2020/12/06 09:13:10;;;;;;;34.43;22.17;;;4.20;99.90;;;;;;5036238;28;20261;-69
2020/12/06 09:15:36;;;;;;;35.93;23.77;;;4.20;99.90;;;;;;5036309;28;20200;-69
2020/12/06 09:18:01;;;;;;;40.03;24.63;;;4.20;99.90;;;;;;5035990;28;20313;-70
2020/12/06 09:20:27;;;;;;;33.97;21.50;;;4.20;99.90;;;;;;5041099;28;20192;-69
2020/12/06 09:22:53;;;;;;;36.43;22.40;;;4.30;99.90;;;;;;5045428;28;21041;-68
2020/12/06 09:25:18;;;;;;;33.03;20.27;;;4.30;99.90;;;;;;5044687;28;20241;-69
2020/12/06 09:27:44;;;;;;;30.03;20.43;;;4.30;99.90;;;;;;5047830;28;20547;-69
2020/12/06 09:30:09;;;;;;;28.20;19.30;;;4.30;99.90;;;;;;5043960;28;20180;-70
2020/12/06 09:32:35;;;;;;;31.83;20.57;;;4.30;99.90;;;;;;5043668;28;20202;-70
2020/12/06 09:35:00;;;;;;;36.63;22.73;;;4.20;99.90;;;;;;5040875;28;20220;-69
2020/12/06 09:37:26;;;;;;;35.93;25.03;;;4.10;99.90;;;;;;5036170;28;20419;-69
2020/12/06 09:39:52;;;;;;;27.43;18.17;;;4.20;99.90;;;;;;5047910;28;20218;-70
2020/12/06 09:42:17;;;;;;;32.97;22.10;;;4.20;99.90;;;;;;5039495;28;20190;-70
2020/12/06 09:44:43;;;;;;;30.03;20.33;;;4.20;99.90;;;;;;5046425;28;20193;-70
2020/12/06 09:47:08;;;;;;;27.87;19.77;;;4.20;99.90;;;;;;5051046;28;20180;-69
2020/12/06 09:49:35;;;;;;;30.23;18.17;;;4.10;99.90;;;;;;5049804;28;20206;-70
2020/12/06 09:52:02;;;;;;;29.17;19.47;;;4.00;99.90;;;;;;5048187;28;20181;-70
2020/12/06 09:54:27;;;;;;;25.00;16.73;;;4.10;99.90;;;;;;5047287;28;20681;-69
2020/12/06 09:56:53;;;;;;;27.10;17.67;;;4.10;99.90;;;;;;5044278;28;20327;-69
2020/12/06 09:59:18;;;;;;;25.13;18.00;;;4.10;99.90;;;;;;5038387;28;20211;-70
2020/12/06 10:01:44;;;;;;;23.93;16.90;;;4.10;99.90;;;;;;5045295;28;20649;-69
2020/12/06 10:04:10;;;;;;;21.80;15.90;;;4.20;99.90;;;;;;5045545;28;20197;-69
2020/12/06 10:06:36;;;;;;;23.67;17.47;;;4.20;99.90;;;;;;5047004;28;20241;-68
2020/12/06 10:09:01;;;;;;;22.10;16.97;;;4.20;99.90;;;;;;5045986;28;20299;-69
2020/12/06 10:11:27;;;;;;;23.93;16.83;;;4.30;99.90;;;;;;5047574;28;20186;-70
2020/12/06 10:13:53;;;;;;;22.43;15.60;;;4.30;99.90;;;;;;5049747;28;20206;-67
2020/12/06 10:16:18;;;;;;;19.00;13.37;;;4.40;99.90;;;;;;5048145;28;20177;-69
2020/12/06 10:18:44;;;;;;;21.27;14.00;;;4.30;99.90;;;;;;5046433;28;20227;-69
2020/12/06 10:21:12;;;;;;;18.83;13.10;;;4.30;99.90;;;;;;5047149;28;20192;-69
2020/12/06 10:23:38;;;;;;;18.98;16.98;;;4.30;99.90;;;;;;5045533;28;20510;-70
2020/12/06 10:26:04;;;;;;;19.55;16.73;;;4.30;99.90;;;;;;5045178;28;20425;-69
2020/12/06 10:28:29;;;;;;;17.37;14.57;;;4.30;99.90;;;;;;5043741;28;20211;-70
2020/12/06 10:30:55;;;;;;;17.10;13.30;;;4.30;99.90;;;;;;5044551;28;20207;-70
2020/12/06 10:33:21;;;;;;;17.70;14.23;;;4.30;99.90;;;;;;5041794;28;20263;-69
2020/12/06 10:35:46;;;;;;;18.83;15.83;;;4.30;99.90;;;;;;5039064;28;20186;-70
2020/12/06 10:38:12;;;;;;;15.20;11.63;;;4.40;99.90;;;;;;5038353;28;20185;-70
2020/12/06 10:40:38;;;;;;;18.63;15.37;;;4.30;99.90;;;;;;5044506;28;20839;-70
2020/12/06 10:43:04;;;;;;;17.33;14.80;;;4.30;99.90;;;;;;5043240;28;20943;-70
2020/12/06 10:45:30;;;;;;;15.17;13.10;;;4.40;99.90;;;;;;5038208;28;20190;-70
2020/12/06 10:47:56;;;;;;;13.73;11.40;;;4.40;99.90;;;;;;5040102;28;20535;-69
2020/12/06 10:50:22;;;;;;;18.87;14.73;;;4.50;99.90;;;;;;5038762;28;20215;-70
2020/12/06 10:52:47;;;;;;;16.27;13.95;;;4.50;99.90;;;;;;5037537;28;20417;-70
2020/12/06 10:55:13;;;;;;;38.07;27.40;;;4.50;99.90;;;;;;5040530;28;20291;-70
2020/12/06 10:57:39;;;;;;;20.47;17.20;;;4.50;99.90;;;;;;5046086;28;20269;-69
2020/12/06 11:00:05;;;;;;;19.97;17.87;;;4.60;99.90;;;;;;5037829;28;20416;-69
2020/12/06 11:02:31;;;;;;;14.83;13.33;;;4.60;99.90;;;;;;5047937;28;20266;-69
2020/12/06 11:04:57;;;;;;;13.33;11.93;;;4.60;99.90;;;;;;5025130;28;20249;-70
2020/12/06 11:07:23;;;;;;;13.00;11.80;;;4.70;99.90;;;;;;5045047;28;20188;-70
2020/12/06 11:09:49;;;;;;;13.13;10.27;;;4.70;99.90;;;;;;5040897;28;20722;-70
2020/12/06 11:12:14;;;;;;;11.40;10.27;;;4.70;99.90;;;;;;5039482;28;20252;-70
2020/12/06 11:14:40;;;;;;;11.40;10.30;;;4.70;99.90;;;;;;5041104;28;20722;-69
2020/12/06 11:17:06;;;;;;;12.90;11.02;;;4.70;99.90;;;;;;5050014;28;20424;-70
2020/12/06 11:19:32;;;;;;;10.43;9.53;;;4.80;99.90;;;;;;5048328;28;20197;-70
2020/12/06 11:21:57;;;;;;;11.27;10.20;;;4.80;99.90;;;;;;5048542;28;20178;-69
2020/12/06 11:24:23;;;;;;;10.30;9.23;;;4.80;99.90;;;;;;5037559;28;20182;-70
2020/12/06 11:26:49;;;;;;;11.43;10.23;;;4.90;99.90;;;;;;5043813;28;20194;-70
2020/12/06 11:29:15;;;;;;;11.23;10.03;;;4.90;99.90;;;;;;5034811;28;20222;-70
2020/12/06 11:31:41;;;;;;;12.27;10.97;;;5.00;99.90;;;;;;5033343;28;20553;-70
2020/12/06 11:34:06;;;;;;;10.23;9.20;;;5.00;99.90;;;;;;5038886;28;20213;-70
2020/12/06 11:36:32;;;;;;;10.33;9.33;;;5.10;99.90;;;;;;5039185;28;20608;-70
2020/12/06 11:38:58;;;;;;;10.10;9.07;;;5.20;99.90;;;;;;5047192;28;20205;-70
2020/12/06 11:41:25;;;;;;;10.47;9.33;;;5.20;99.90;;;;;;5041066;28;20290;-70
2020/12/06 11:43:51;;;;;;;13.63;11.70;;;5.20;99.90;;;;;;5041678;28;20232;-71
2020/12/06 11:46:17;;;;;;;12.67;11.37;;;5.10;99.90;;;;;;5039482;28;20199;-70
2020/12/06 11:48:42;;;;;;;12.40;10.13;;;5.10;99.90;;;;;;5043490;28;20207;-70
2020/12/06 11:51:08;;;;;;;16.83;13.20;;;5.10;99.90;;;;;;5045881;28;20222;-70
2020/12/06 11:53:36;;;;;;;16.03;14.33;;;5.20;99.90;;;;;;5041917;28;20247;-70
2020/12/06 11:56:02;;;;;;;18.10;16.07;;;5.20;99.90;;;;;;5025233;28;20178;-70
2020/12/06 11:58:27;;;;;;;18.43;16.63;;;5.20;99.90;;;;;;5040492;28;20288;-70
2020/12/06 12:00:53;;;;;;;17.83;16.17;;;5.20;99.90;;;;;;5042696;28;20266;-70
2020/12/06 12:03:18;;;;;;;106.73;96.67;;;5.20;99.90;;;;;;5039430;28;20187;-70
2020/12/06 12:05:46;;;;;;;19.27;17.27;;;5.20;99.90;;;;;;5034653;28;20190;-71
2020/12/06 12:08:11;;;;;;;13.67;12.30;;;5.10;99.90;;;;;;5037616;28;20202;-70
2020/12/06 12:10:37;;;;;;;11.83;10.63;;;5.20;99.90;;;;;;5044044;28;20198;-71
2020/12/06 12:13:02;;;;;;;13.83;12.43;;;5.30;99.90;;;;;;5035718;28;20436;-71
2020/12/06 12:15:28;;;;;;;12.50;11.30;;;5.30;99.90;;;;;;5039299;28;20593;-71
2020/12/06 12:17:54;;;;;;;15.57;13.97;;;5.30;99.80;;;;;;5048711;28;20190;-71
2020/12/06 12:20:20;;;;;;;12.00;10.63;;;5.30;99.90;;;;;;5050929;28;20183;-70
2020/12/06 12:22:45;;;;;;;13.87;11.50;;;5.20;99.80;;;;;;5025508;28;20178;-71
2020/12/06 12:25:11;;;;;;;19.47;14.63;;;5.20;99.90;;;;;;5041225;28;20631;-71
2020/12/06 12:27:37;;;;;;;12.33;10.43;;;5.20;99.90;;;;;;5039705;28;20241;-70
2020/12/06 12:30:04;;;;;;;13.10;11.00;;;5.20;99.90;;;;;;5041224;28;20210;-72
2020/12/06 12:32:30;;;;;;;14.03;10.93;;;5.30;99.90;;;;;;5045800;28;20569;-71
2020/12/06 12:34:55;;;;;;;12.07;10.80;;;5.30;99.90;;;;;;5044555;28;20290;-70